Time;durP1;ratioP1;P1;durP2;ratioP2;P2;SDS_P1;SDS_P2;PMS_P1;PMS_P2;Temp;Humidity;BMP_temperature;BMP_pressure;BME280_temperature;BME280_humidity;BME280_pressure;Samples;Min_cycle;Max_cycle;Signal;HPM_P1;HPM_P2
2023/06/23 00:01:26;;;;;;;1.83;1.73;;;;;;;23.34;67.85;98641.69;5025838;27;103993;-76
2023/06/23 00:03:55;;;;;;;2.08;1.90;;;;;;;23.57;67.47;98647.75;5022531;27;103790;-77
2023/06/23 00:06:23;;;;;;;2.10;2.00;;;;;;;23.31;68.49;98654.72;5008283;27;104443;-76
2023/06/23 00:08:50;;;;;;;1.85;1.60;;;;;;;23.69;67.29;98663.41;5024905;27;103474;-77
2023/06/23 00:11:19;;;;;;;2.30;1.90;;;;;;;23.89;66.29;98664.41;5024240;27;102591;-77
2023/06/23 00:13:50;;;;;;;2.53;1.98;;;;;;;23.41;68.14;98668.75;5009821;27;103528;-77
2023/06/23 00:16:18;;;;;;;1.97;1.70;;;;;;;24.09;65.66;98654.56;4999377;27;104275;-77
2023/06/23 00:18:47;;;;;;;2.50;2.10;;;;;;;23.79;66.51;98667.41;5026244;27;104015;-76
2023/06/23 00:21:15;;;;;;;2.10;2.00;;;;;;;23.76;66.98;98665.09;5026537;27;103038;-77
2023/06/23 00:23:43;;;;;;;3.88;2.10;;;;;;;23.73;67.37;98672.75;5017726;27;103108;-76
2023/06/23 00:26:12;;;;;;;2.40;2.20;;;;;;;23.07;69.82;98678.28;5022105;27;102995;-76
2023/06/23 00:28:39;;;;;;;2.47;2.28;;;;;;;23.14;70.09;98678.38;5025352;27;103380;-77
2023/06/23 00:31:07;;;;;;;2.30;2.10;;;;;;;23.37;68.87;98684.44;5028163;27;102840;-77
2023/06/23 00:33:36;;;;;;;2.50;2.30;;;;;;;23.19;69.20;98681.31;5010788;27;103204;-77
2023/06/23 00:36:05;;;;;;;2.42;2.08;;;;;;;23.50;68.04;98684.59;5011456;27;103215;-77
2023/06/23 00:38:34;;;;;;;2.20;1.90;;;;;;;23.86;66.68;98686.38;5007986;27;103959;-77
2023/06/23 00:41:02;;;;;;;2.37;1.90;;;;;;;23.67;67.66;98696.78;5033002;27;102601;-76
2023/06/23 00:43:30;;;;;;;2.25;1.98;;;;;;;23.66;67.12;98699.69;5023360;27;103201;-77
2023/06/23 00:46:07;;;;;;;2.20;2.10;;;;;;;23.61;67.50;98694.84;5006122;27;104419;-77
2023/06/23 00:48:38;;;;;;;2.15;1.95;;;;;;;23.59;67.17;98688.81;5019637;27;103127;-76
2023/06/23 00:51:07;;;;;;;2.50;2.30;;;;;;;23.56;67.48;98685.66;5029448;27;103779;-76
2023/06/23 00:53:35;;;;;;;2.30;2.10;;;;;;;23.41;67.69;98688.44;5029033;27;103004;-76
2023/06/23 00:56:03;;;;;;;2.08;1.90;;;;;;;23.78;66.66;98692.72;5010734;27;103738;-76
2023/06/23 00:58:34;;;;;;;2.65;1.92;;;;;;;23.49;67.76;98703.66;5026021;27;103362;-77
2023/06/23 01:01:05;;;;;;;2.30;2.10;;;;;;;23.25;68.63;98698.59;5012664;27;102855;-76
2023/06/23 01:03:35;;;;;;;2.60;2.13;;;;;;;23.25;68.76;98702.13;5006145;27;102891;-77
2023/06/23 01:06:16;;;;;;;1.90;1.80;;;;;;;23.44;67.85;98701.53;5025247;27;104046;-76
2023/06/23 01:08:54;;;;;;;2.35;2.15;;;;;;;22.90;69.83;98697.59;5005551;27;102745;-76
2023/06/23 01:11:28;;;;;;;2.33;2.13;;;;;;;22.88;70.19;98705.00;5023256;27;102858;-76
2023/06/23 01:14:02;;;;;;;2.63;2.05;;;;;;;22.66;72.33;98709.50;5011202;27;102962;-76
2023/06/23 01:16:37;;;;;;;2.47;2.28;;;;;;;22.93;71.97;98713.38;5012387;27;104360;-77
2023/06/23 01:19:21;;;;;;;2.53;2.33;;;;;;;22.15;76.99;98724.66;5010659;27;103195;-76
2023/06/23 01:22:01;;;;;;;3.17;2.17;;;;;;;22.16;78.73;98720.97;5008325;27;102946;-76
2023/06/23 01:24:44;;;;;;;2.50;2.30;;;;;;;22.40;78.21;98731.47;5009586;27;103997;-77
2023/06/23 01:27:28;;;;;;;2.20;2.00;;;;;;;22.82;76.55;98732.72;5011964;27;104263;-76
2023/06/23 01:30:02;;;;;;;2.67;2.47;;;;;;;21.61;83.26;98741.94;5021605;27;103194;-76
2023/06/23 01:32:35;;;;;;;2.72;2.45;;;;;;;21.92;82.49;98731.97;5013814;27;103311;-75
2023/06/23 01:35:08;;;;;;;2.75;2.55;;;;;;;21.44;84.63;98743.91;5021288;27;102751;-75
2023/06/23 01:37:38;;;;;;;3.10;2.80;;;;;;;21.50;84.74;98739.66;5014540;27;104258;-75
2023/06/23 01:40:10;;;;;;;3.30;3.00;;;;;;;20.88;87.80;98739.66;5029045;27;103257;-75
2023/06/23 01:42:42;;;;;;;4.00;3.50;;;;;;;20.81;84.85;98744.03;5031255;27;104120;-74
2023/06/23 01:45:14;;;;;;;4.03;3.30;;;;;;;21.07;83.21;98746.44;5010358;27;103925;-75
2023/06/23 01:47:43;;;;;;;4.25;3.85;;;;;;;20.83;81.13;98747.38;5020420;27;103276;-75
2023/06/23 01:50:13;;;;;;;4.60;4.10;;;;;;;20.61;81.79;98756.19;5028342;27;102861;-75
2023/06/23 01:52:45;;;;;;;4.67;4.27;;;;;;;21.02;79.39;98752.34;5014680;27;103067;-75
2023/06/23 01:55:15;;;;;;;4.67;4.27;;;;;;;20.86;79.64;98749.72;5008813;27;103848;-75
2023/06/23 01:57:47;;;;;;;4.88;4.47;;;;;;;20.86;79.20;98748.88;5011145;27;104195;-74
2023/06/23 02:00:21;;;;;;;4.90;4.47;;;;;;;20.61;79.08;98750.81;5007989;27;104356;-76
2023/06/23 02:02:52;;;;;;;5.30;4.90;;;;;;;20.58;79.62;98769.94;5022390;27;103649;-74
2023/06/23 02:05:26;;;;;;;4.60;4.20;;;;;;;20.75;79.88;98779.63;5004752;27;103680;-74
2023/06/23 02:07:55;;;;;;;4.93;3.50;;;;;;;20.36;81.90;98786.78;5014778;27;104219;-75
2023/06/23 02:10:24;;;;;;;4.20;3.90;;;;;;;20.83;80.74;98789.53;5005009;27;104175;-74
2023/06/23 02:12:55;;;;;;;3.30;3.03;;;;;;;20.72;81.22;98788.03;5012166;27;102785;-74
2023/06/23 02:15:26;;;;;;;3.50;3.20;;;;;;;21.05;79.58;98784.19;5023577;27;103205;-74
2023/06/23 02:17:58;;;;;;;3.67;3.30;;;;;;;20.85;80.36;98799.06;5006026;27;104705;-74
2023/06/23 02:20:29;;;;;;;3.60;3.30;;;;;;;20.41;81.93;98805.88;5012716;27;103199;-74
2023/06/23 02:22:58;;;;;;;3.17;2.97;;;;;;;20.29;83.05;98808.09;5007501;27;102999;-75
2023/06/23 02:25:30;;;;;;;3.60;3.30;;;;;;;20.49;82.05;98814.75;5005674;27;104005;-75
2023/06/23 02:27:59;;;;;;;3.47;3.17;;;;;;;20.78;80.26;98804.28;5027492;27;104422;-74
2023/06/23 02:30:30;;;;;;;3.75;3.45;;;;;;;20.86;79.76;98811.47;5006355;27;103196;-74
2023/06/23 02:32:57;;;;;;;3.72;3.42;;;;;;;20.67;80.89;98818.09;5025235;27;102709;-75
2023/06/23 02:35:25;;;;;;;3.58;3.28;;;;;;;20.83;80.16;98811.81;5028584;27;103977;-74
2023/06/23 02:37:59;;;;;;;3.33;3.03;;;;;;;21.06;78.71;98818.13;5008511;27;104327;-75
2023/06/23 02:40:33;;;;;;;3.78;3.47;;;;;;;21.06;79.15;98822.63;5007135;27;103660;-74
2023/06/23 02:43:05;;;;;;;4.00;3.70;;;;;;;20.81;79.43;98814.69;5010258;27;103784;-74
2023/06/23 02:45:39;;;;;;;3.38;3.13;;;;;;;21.20;78.13;98816.56;5029065;27;104470;-73
2023/06/23 02:48:11;;;;;;;4.43;4.03;;;;;;;20.88;79.62;98817.53;5010205;27;103336;-74
2023/06/23 02:50:40;;;;;;;3.92;3.63;;;;;;;21.09;78.39;98822.34;5008947;27;104222;-75
2023/06/23 02:53:11;;;;;;;4.00;3.70;;;;;;;20.98;77.87;98815.47;5015460;27;103343;-74
2023/06/23 02:55:42;;;;;;;4.90;4.50;;;;;;;20.66;79.58;98815.59;5008520;27;104380;-74
2023/06/23 02:58:13;;;;;;;4.83;4.43;;;;;;;20.97;77.98;98821.84;5005141;27;103316;-75
2023/06/23 03:00:44;;;;;;;5.73;5.30;;;;;;;20.84;78.27;98824.25;5005833;27;104301;-75
2023/06/23 03:03:15;;;;;;;6.53;5.93;;;;;;;20.27;81.04;98831.56;5009882;27;102742;-75
2023/06/23 03:05:44;;;;;;;6.03;5.53;;;;;;;20.89;78.80;98832.59;5006643;27;104449;-76
2023/06/23 03:08:12;;;;;;;6.30;5.80;;;;;;;20.55;80.75;98834.69;5007575;27;103220;-78
2023/06/23 03:10:42;;;;;;;6.35;5.75;;;;;;;20.56;80.22;98836.38;5009850;27;103214;-78
2023/06/23 03:13:12;;;;;;;6.75;6.22;;;;;;;20.67;79.73;98836.03;5031848;27;102698;-78
2023/06/23 03:15:41;;;;;;;7.53;6.82;;;;;;;20.88;78.51;98848.91;5029537;27;102677;-78
2023/06/23 03:18:16;;;;;;;8.18;7.47;;;;;;;20.67;78.69;98850.28;5028905;27;103370;-77
2023/06/23 03:20:50;;;;;;;8.77;8.07;;;;;;;20.38;80.03;98854.53;5015557;27;104567;-75
2023/06/23 03:23:19;;;;;;;8.02;7.32;;;;;;;20.61;79.58;98850.97;5011039;27;102769;-77
2023/06/23 03:25:49;;;;;;;9.07;8.17;;;;;;;20.57;79.34;98855.03;5007965;27;103831;-77
2023/06/23 03:28:21;;;;;;;9.02;8.20;;;;;;;20.34;80.52;98856.72;5007620;27;103506;-75
2023/06/23 03:30:57;;;;;;;8.90;8.15;;;;;;;20.61;79.03;98863.53;5013228;27;102723;-80
2023/06/23 03:33:32;;;;;;;9.27;8.48;;;;;;;20.70;77.95;98862.53;5006492;27;102860;-77
2023/06/23 03:36:07;;;;;;;8.40;7.70;;;;;;;20.85;77.30;98862.69;5019545;27;102917;-81
2023/06/23 03:38:41;;;;;;;8.15;7.45;;;;;;;21.07;76.26;98860.13;5003633;27;103332;-77
2023/06/23 03:41:13;;;;;;;8.80;8.00;;;;;;;21.07;75.59;98864.63;5029755;27;103333;-77
2023/06/23 03:43:48;;;;;;;9.43;8.53;;;;;;;20.70;76.67;98870.59;5031842;27;102901;-76
2023/06/23 03:46:21;;;;;;;9.60;8.80;;;;;;;20.95;76.21;98864.16;5010726;27;103053;-76
2023/06/23 03:48:54;;;;;;;9.63;8.82;;;;;;;20.83;76.34;98872.75;5028156;27;103479;-76
2023/06/23 03:51:23;;;;;;;9.70;8.80;;;;;;;20.72;77.12;98874.78;5003352;27;104132;-75
2023/06/23 03:53:53;;;;;;;9.05;8.25;;;;;;;21.04;75.36;98878.38;5024472;27;102722;-75
2023/06/23 03:56:24;;;;;;;9.57;8.77;;;;;;;20.42;77.62;98882.69;5023910;27;103890;-76
2023/06/23 03:58:53;;;;;;;10.32;9.32;;;;;;;20.60;77.00;98891.41;5023845;27;102678;-76
2023/06/23 04:01:23;;;;;;;10.40;9.40;;;;;;;20.75;75.59;98895.06;5023665;27;103202;-76
2023/06/23 04:03:53;;;;;;;8.80;8.00;;;;;;;20.96;75.24;98895.38;5023445;27;102713;-76
2023/06/23 04:06:22;;;;;;;9.73;8.82;;;;;;;20.82;76.97;98896.06;5030258;27;102963;-76
2023/06/23 04:08:53;;;;;;;9.50;8.60;;;;;;;20.91;76.15;98900.44;5033643;27;103354;-76
2023/06/23 04:11:23;;;;;;;10.55;9.63;;;;;;;20.77;75.56;98909.19;5016446;27;103384;-76
2023/06/23 04:13:53;;;;;;;10.50;9.55;;;;;;;20.68;76.07;98911.03;5030583;27;102644;-76
2023/06/23 04:16:24;;;;;;;11.30;10.23;;;;;;;20.58;76.49;98906.81;5010401;27;103473;-76
2023/06/23 04:18:53;;;;;;;10.88;9.98;;;;;;;20.84;75.68;98915.53;5031514;27;104095;-76
2023/06/23 04:21:23;;;;;;;11.05;10.05;;;;;;;20.91;75.35;98924.59;5023947;27;103180;-76
2023/06/23 04:23:53;;;;;;;10.88;9.88;;;;;;;20.72;75.64;98912.34;5012813;27;102757;-77
2023/06/23 04:26:22;;;;;;;11.48;10.45;;;;;;;20.87;74.84;98928.63;5027430;27;103872;-76
2023/06/23 04:28:53;;;;;;;10.68;9.77;;;;;;;21.08;73.39;98934.31;5028258;27;103457;-76
2023/06/23 04:31:24;;;;;;;12.05;10.88;;;;;;;20.74;75.19;98939.88;5031203;27;103205;-76
2023/06/23 04:33:52;;;;;;;9.95;9.15;;;;;;;21.11;74.39;98947.38;5033822;27;103923;-77
2023/06/23 04:36:25;;;;;;;11.88;10.77;;;;;;;21.20;73.20;98959.81;5030713;27;103792;-77
2023/06/23 04:39:02;;;;;;;11.90;10.80;;;;;;;21.03;73.19;98957.28;5035022;27;104005;-77
2023/06/23 04:41:34;;;;;;;11.73;10.63;;;;;;;21.12;73.83;98956.28;5030507;27;103195;-76
2023/06/23 04:44:06;;;;;;;11.05;10.05;;;;;;;21.39;72.54;98959.41;5035014;27;102622;-77
2023/06/23 04:46:39;;;;;;;11.80;10.70;;;;;;;21.49;72.49;98961.06;5032528;27;104291;-77
2023/06/23 04:49:09;;;;;;;13.90;12.70;;;;;;;21.12;73.03;98967.88;5031203;27;103262;-77
2023/06/23 04:51:41;;;;;;;14.23;12.95;;;;;;;21.18;73.20;98967.19;5010326;27;103547;-77
2023/06/23 04:54:13;;;;;;;14.45;13.18;;;;;;;21.28;72.17;98967.00;5021523;27;102659;-77
2023/06/23 04:56:45;;;;;;;13.23;12.02;;;;;;;21.62;71.45;98964.03;5032798;27;104005;-76
2023/06/23 04:59:15;;;;;;;14.60;13.32;;;;;;;21.08;73.39;98977.28;5012271;27;103337;-77
2023/06/23 05:01:46;;;;;;;14.73;13.32;;;;;;;20.87;74.25;98979.63;5036048;27;103291;-77
2023/06/23 05:04:15;;;;;;;15.20;13.80;;;;;;;20.96;73.75;98980.47;5032630;27;102964;-78
2023/06/23 05:06:45;;;;;;;14.90;13.50;;;;;;;21.06;73.04;98989.16;5035958;27;102714;-77
2023/06/23 05:09:36;;;;;;;16.42;15.02;;;;;;;20.85;74.39;98992.41;5012944;27;104237;-78
2023/06/23 05:12:07;;;;;;;18.30;16.77;;;;;;;20.72;74.25;98992.88;5031229;27;103180;-78
2023/06/23 05:14:38;;;;;;;17.85;16.25;;;;;;;21.12;72.87;98997.44;5023305;27;102770;-79
2023/06/23 05:17:09;;;;;;;17.55;15.95;;;;;;;20.94;73.92;98988.69;5029397;27;102818;-79
2023/06/23 05:19:42;;;;;;;17.42;15.75;;;;;;;21.13;72.94;98985.69;5033323;27;103564;-80
2023/06/23 05:22:14;;;;;;;18.50;16.73;;;;;;;21.22;72.25;98992.69;5009928;27;104998;-79
2023/06/23 05:24:49;;;;;;;20.73;18.92;;;;;;;20.95;73.28;98987.69;5002106;27;102979;-79
2023/06/23 05:27:21;;;;;;;21.40;19.42;;;;;;;21.06;72.79;98990.00;5032448;27;102956;-76
2023/06/23 05:29:51;;;;;;;18.80;17.10;;;;;;;21.42;71.91;98985.09;5022904;27;103869;-76
2023/06/23 05:32:24;;;;;;;21.27;19.27;;;;;;;21.38;71.52;98990.00;5024821;27;103203;-80
2023/06/23 05:34:56;;;;;;;20.63;18.70;;;;;;;21.37;71.56;98993.69;5032312;27;102564;-81
2023/06/23 05:37:25;;;;;;;19.83;17.93;;;;;;;21.55;71.63;98998.00;5028288;27;102851;-81
2023/06/23 05:39:54;;;;;;;20.63;18.73;;;;;;;21.68;70.16;98990.22;5022938;27;104413;-78
2023/06/23 05:42:22;;;;;;;22.08;20.13;;;;;;;21.73;70.35;98993.22;5028989;27;103217;-78
2023/06/23 05:44:50;;;;;;;24.05;21.75;;;;;;;21.73;69.77;98998.59;5032205;27;102631;-79
2023/06/23 05:47:22;;;;;;;23.85;21.75;;;;;;;21.51;70.67;99008.25;5035922;27;104462;-79
2023/06/23 05:49:56;;;;;;;24.13;21.77;;;;;;;21.26;71.09;99007.47;5033658;27;104438;-80
2023/06/23 05:52:24;;;;;;;24.73;22.42;;;;;;;21.40;70.25;99003.25;5029848;27;103234;-77
2023/06/23 05:54:55;;;;;;;25.42;23.13;;;;;;;21.41;70.45;99010.31;5028128;27;102586;-77
2023/06/23 05:57:28;;;;;;;23.75;21.52;;;;;;;21.70;69.37;99001.63;5014382;27;103594;-76
2023/06/23 06:00:05;;;;;;;25.83;23.40;;;;;;;21.74;69.14;99011.03;5031833;27;104027;-77
2023/06/23 06:02:41;;;;;;;25.10;22.70;;;;;;;21.82;68.34;99011.00;5027128;27;103106;-75
2023/06/23 06:05:17;;;;;;;26.07;23.67;;;;;;;21.68;69.76;99007.19;5019325;27;103327;-77
2023/06/23 06:07:46;;;;;;;24.98;22.58;;;;;;;21.74;68.94;99002.97;5033389;27;104076;-77
2023/06/23 06:10:16;;;;;;;23.98;21.67;;;;;;;21.84;68.22;99014.34;5015566;27;103792;-76
2023/06/23 06:12:46;;;;;;;24.05;21.73;;;;;;;21.83;67.52;99013.53;5031037;27;103238;-77
2023/06/23 06:15:21;;;;;;;23.45;21.35;;;;;;;21.82;67.47;99017.22;5034752;27;102684;-76
2023/06/23 06:18:23;;;;;;;25.27;22.98;;;;;;;21.95;67.25;99022.09;5023981;27;103676;-78
2023/06/23 06:20:54;;;;;;;25.48;22.92;;;;;;;22.12;66.62;99031.72;5032149;27;103364;-77
2023/06/23 06:23:24;;;;;;;23.40;21.20;;;;;;;21.94;67.04;99033.84;5030176;27;103198;-77
2023/06/23 06:25:54;;;;;;;22.88;20.67;;;;;;;22.04;67.00;99039.84;5028504;27;102707;-77
2023/06/23 06:28:24;;;;;;;23.45;21.25;;;;;;;22.19;66.48;99042.63;5030465;27;102707;-77
2023/06/23 06:30:54;;;;;;;22.65;20.55;;;;;;;22.48;65.95;99054.41;5028485;27;103036;-75
2023/06/23 06:33:23;;;;;;;25.70;23.07;;;;;;;21.91;67.65;99055.72;5031303;27;103212;-76
2023/06/23 06:35:55;;;;;;;23.75;21.60;;;;;;;21.96;67.71;99053.34;5013591;27;102722;-77
2023/06/23 06:38:24;;;;;;;23.67;21.43;;;;;;;22.22;66.74;99051.22;5031781;27;102925;-77
2023/06/23 06:40:54;;;;;;;23.70;21.27;;;;;;;22.32;66.08;99070.66;5028953;27;104056;-78
2023/06/23 06:43:22;;;;;;;26.67;24.17;;;;;;;21.52;68.87;99070.91;5029363;27;103359;-76
2023/06/23 06:45:54;;;;;;;24.40;22.00;;;;;;;22.19;66.71;99080.31;5013758;27;102677;-76
2023/06/23 06:48:25;;;;;;;24.33;21.93;;;;;;;22.68;65.03;99075.53;5029997;27;102944;-76
2023/06/23 06:50:56;;;;;;;21.83;19.83;;;;;;;23.03;63.72;99074.94;5029896;27;103313;-75
2023/06/23 06:53:25;;;;;;;23.10;20.90;;;;;;;22.92;64.80;99078.06;5027519;27;103185;-75
2023/06/23 06:55:55;;;;;;;22.10;20.03;;;;;;;23.21;63.12;99088.94;5031036;27;102813;-76
2023/06/23 06:58:24;;;;;;;24.45;22.20;;;;;;;22.14;65.86;99094.31;5039801;27;104014;-75
2023/06/23 07:00:53;;;;;;;25.65;23.02;;;;;;;22.25;65.68;99096.59;5005103;27;104452;-75
2023/06/23 07:03:22;;;;;;;23.42;21.23;;;;;;;22.58;65.33;99107.19;5027503;27;103310;-77
2023/06/23 07:05:50;;;;;;;24.77;22.40;;;;;;;22.69;64.78;99109.50;5031702;27;102632;-76
2023/06/23 07:08:20;;;;;;;21.47;19.37;;;;;;;23.30;63.36;99109.38;5034663;27;102665;-77
2023/06/23 07:10:47;;;;;;;20.60;18.67;;;;;;;23.41;62.76;99121.66;5036033;27;103357;-77
2023/06/23 07:13:18;;;;;;;20.88;18.85;;;;;;;23.32;62.66;99125.41;5028697;27;103133;-77
2023/06/23 07:15:46;;;;;;;21.02;19.02;;;;;;;23.03;62.72;99126.13;5028657;27;102604;-77
2023/06/23 07:18:15;;;;;;;20.15;18.35;;;;;;;23.22;62.28;99133.72;5027817;27;102768;-77
2023/06/23 07:20:43;;;;;;;20.48;18.48;;;;;;;22.63;62.86;99142.50;5030913;27;104056;-77
2023/06/23 07:23:11;;;;;;;19.65;17.75;;;;;;;22.80;62.40;99144.13;5034580;27;103066;-77
2023/06/23 07:25:44;;;;;;;21.70;19.70;;;;;;;22.76;62.23;99148.19;5015732;27;102896;-76
2023/06/23 07:28:12;;;;;;;20.40;18.60;;;;;;;22.85;62.73;99157.91;5026947;27;102926;-78
2023/06/23 07:30:40;;;;;;;20.10;18.10;;;;;;;23.06;61.44;99155.41;5031923;27;103253;-77
2023/06/23 07:33:08;;;;;;;19.38;17.42;;;;;;;22.81;62.21;99161.97;5031886;27;103259;-78
2023/06/23 07:35:36;;;;;;;18.50;16.80;;;;;;;23.16;61.48;99158.69;5029565;27;102980;-77
2023/06/23 07:38:05;;;;;;;20.15;18.23;;;;;;;22.50;63.38;99165.47;5033563;27;103963;-78
2023/06/23 07:40:33;;;;;;;17.33;15.73;;;;;;;23.24;61.26;99161.34;5029073;27;103858;-77
2023/06/23 07:43:03;;;;;;;19.33;17.52;;;;;;;23.42;60.86;99164.59;5028793;27;103210;-77
2023/06/23 07:45:31;;;;;;;18.63;16.88;;;;;;;23.18;60.97;99166.63;5027573;27;103204;-77
2023/06/23 07:47:59;;;;;;;18.37;16.63;;;;;;;22.95;61.48;99180.06;5011742;27;104011;-78
2023/06/23 07:50:27;;;;;;;19.13;17.40;;;;;;;22.76;61.64;99180.50;5032554;27;104181;-77
2023/06/23 07:52:55;;;;;;;19.15;17.55;;;;;;;22.28;62.88;99182.38;5011630;27;103364;-77
2023/06/23 07:55:23;;;;;;;17.67;16.08;;;;;;;22.50;62.62;99192.38;5031079;27;102559;-77
2023/06/23 07:57:51;;;;;;;17.80;16.00;;;;;;;22.75;61.81;99195.00;5031138;27;103835;-77
2023/06/23 08:00:23;;;;;;;16.13;14.70;;;;;;;22.85;61.72;99195.63;5028686;27;103912;-76
2023/06/23 08:02:51;;;;;;;14.68;13.38;;;;;;;23.06;61.53;99201.22;5009091;27;103402;-77
2023/06/23 08:05:19;;;;;;;16.17;14.53;;;;;;;22.86;60.54;99205.38;5023282;27;103552;-77
2023/06/23 08:07:48;;;;;;;14.38;13.18;;;;;;;22.85;60.94;99196.44;5032564;27;102805;-77
2023/06/23 08:10:16;;;;;;;13.27;12.00;;;;;;;22.85;61.60;99190.25;5024809;27;103357;-77
2023/06/23 08:12:44;;;;;;;14.88;13.38;;;;;;;22.92;60.50;99204.66;5029528;27;102987;-77
2023/06/23 08:15:12;;;;;;;14.27;12.88;;;;;;;22.90;61.45;99204.00;5015371;27;103223;-76
2023/06/23 08:17:41;;;;;;;13.20;11.90;;;;;;;23.55;59.27;99210.66;5030991;27;103585;-77
2023/06/23 08:20:10;;;;;;;15.18;13.88;;;;;;;23.04;59.89;99216.72;5012575;27;102807;-77
2023/06/23 08:22:39;;;;;;;14.40;13.00;;;;;;;23.59;58.79;99211.13;5021207;27;104190;-77
2023/06/23 08:25:08;;;;;;;14.30;12.98;;;;;;;23.42;59.41;99231.16;5035610;27;102843;-77
2023/06/23 08:27:36;;;;;;;15.40;13.95;;;;;;;22.97;60.73;99224.66;5028007;27;102781;-77
2023/06/23 08:30:08;;;;;;;14.57;13.23;;;;;;;23.63;59.85;99225.94;5034014;27;104592;-77
2023/06/23 08:32:38;;;;;;;12.82;11.63;;;;;;;25.23;55.05;99235.16;5034408;27;103204;-77
2023/06/23 08:35:08;;;;;;;13.65;12.35;;;;;;;24.37;57.20;99233.16;5008657;27;102792;-77
2023/06/23 08:37:39;;;;;;;14.67;13.27;;;;;;;24.37;56.80;99235.03;5028303;27;103782;-77
2023/06/23 08:40:09;;;;;;;15.55;14.15;;;;;;;24.45;56.10;99235.78;5009733;27;102919;-77
2023/06/23 08:42:40;;;;;;;14.23;12.83;;;;;;;25.61;54.02;99225.78;5027540;27;102998;-77
2023/06/23 08:45:12;;;;;;;14.95;13.55;;;;;;;25.74;52.85;99231.31;5030914;27;102870;-76
2023/06/23 08:47:46;;;;;;;13.25;11.95;;;;;;;25.34;53.70;99238.19;5028623;27;103809;-76
2023/06/23 08:50:16;;;;;;;9.98;9.07;;;;;;;26.22;51.25;99236.91;5016348;27;104549;-76
2023/06/23 08:52:44;;;;;;;11.77;10.67;;;;;;;26.55;49.41;99227.16;5010422;27;103257;-76
2023/06/23 08:55:13;;;;;;;11.55;10.48;;;;;;;26.43;49.58;99228.75;5026786;27;102878;-76
2023/06/23 08:57:41;;;;;;;10.20;9.15;;;;;;;27.57;48.80;99219.81;5026660;27;104073;-76
2023/06/23 09:00:12;;;;;;;11.50;10.40;;;;;;;26.23;50.29;99220.50;5013793;27;104017;-76
2023/06/23 09:02:40;;;;;;;12.02;10.77;;;;;;;27.05;49.24;99218.66;5020297;27;104143;-76
2023/06/23 09:05:09;;;;;;;11.77;10.70;;;;;;;27.36;48.19;99217.28;5039561;27;102836;-76
2023/06/23 09:07:38;;;;;;;11.07;10.17;;;;;;;27.50;48.10;99227.97;5032757;27;104108;-76
2023/06/23 09:10:07;;;;;;;12.13;10.93;;;;;;;26.84;48.70;99220.63;5014404;27;104190;-76
2023/06/23 09:12:35;;;;;;;11.90;10.57;;;;;;;26.34;50.71;99228.06;5032188;27;103220;-76
2023/06/23 09:15:03;;;;;;;11.63;10.53;;;;;;;26.22;50.95;99245.03;5032919;27;102837;-76
2023/06/23 09:17:31;;;;;;;11.77;10.77;;;;;;;27.00;49.55;99237.38;5030394;27;102990;-75
2023/06/23 09:20:00;;;;;;;11.93;10.88;;;;;;;26.98;49.48;99244.88;5029940;27;104241;-76
2023/06/23 09:22:32;;;;;;;10.40;9.40;;;;;;;28.45;45.77;99235.72;5029811;27;103198;-75
2023/06/23 09:25:02;;;;;;;11.35;10.32;;;;;;;28.34;46.67;99241.78;5031655;27;103088;-76
2023/06/23 09:27:42;;;;;;;9.73;8.75;;;;;;;28.62;45.10;99223.34;5017606;27;103304;-75
2023/06/23 09:30:11;;;;;;;10.95;9.95;;;;;;;27.55;47.83;99236.34;5029808;27;102643;-76
2023/06/23 09:32:39;;;;;;;11.00;10.00;;;;;;;26.62;48.85;99233.44;5028505;27;103160;-75
2023/06/23 09:35:08;;;;;;;9.60;8.80;;;;;;;27.21;47.45;99243.72;5026158;27;102940;-75
2023/06/23 09:37:36;;;;;;;10.70;9.70;;;;;;;27.74;46.78;99240.09;5029046;27;103892;-76
2023/06/23 09:40:09;;;;;;;10.95;9.98;;;;;;;27.25;48.20;99247.72;5029829;27;103284;-76
2023/06/23 09:42:44;;;;;;;9.70;8.70;;;;;;;26.96;47.56;99246.13;5031243;27;103240;-75
2023/06/23 09:45:17;;;;;;;8.68;7.88;;;;;;;28.28;44.20;99249.94;5036254;27;102920;-75
2023/06/23 09:47:48;;;;;;;7.95;7.25;;;;;;;28.58;43.78;99249.25;5012938;27;104016;-76
2023/06/23 09:50:18;;;;;;;7.05;6.45;;;;;;;28.43;44.01;99251.41;5028946;27;103293;-76
2023/06/23 09:52:45;;;;;;;8.27;7.38;;;;;;;27.18;45.60;99238.69;5022984;27;103244;-76
2023/06/23 09:55:17;;;;;;;9.27;8.30;;;;;;;26.74;47.04;99239.13;5030403;27;103278;-75
2023/06/23 09:57:45;;;;;;;7.90;7.13;;;;;;;27.78;44.34;99246.81;5015279;27;103711;-74
2023/06/23 10:00:17;;;;;;;7.25;6.65;;;;;;;28.08;43.86;99244.53;5007875;27;103582;-75
2023/06/23 10:02:45;;;;;;;8.05;7.32;;;;;;;27.32;45.98;99226.84;5025476;27;104242;-76
2023/06/23 10:05:16;;;;;;;7.23;6.47;;;;;;;28.32;44.47;99232.19;5031587;27;102813;-74
2023/06/23 10:07:44;;;;;;;7.68;6.82;;;;;;;28.17;43.62;99224.25;5029171;27;104002;-75
2023/06/23 10:10:12;;;;;;;8.25;7.47;;;;;;;27.84;44.10;99234.28;5032799;27;104346;-74
2023/06/23 10:12:51;;;;;;;8.10;7.30;;;;;;;27.15;45.62;99239.94;5014031;27;103069;-74
2023/06/23 10:15:20;;;;;;;6.40;5.87;;;;;;;27.85;43.77;99242.19;5008404;27;102714;-75
2023/06/23 10:17:49;;;;;;;8.25;7.55;;;;;;;26.77;45.73;99234.16;5009746;27;105502;-77
2023/06/23 10:20:16;;;;;;;8.13;7.40;;;;;;;25.89;47.88;99237.47;5028364;27;104140;-77
2023/06/23 10:22:45;;;;;;;7.38;6.78;;;;;;;26.66;46.25;99250.97;5027014;27;103213;-78
2023/06/23 10:25:13;;;;;;;7.97;7.18;;;;;;;27.24;45.03;99232.47;5014034;27;103048;-78
2023/06/23 10:27:42;;;;;;;9.10;8.20;;;;;;;26.53;46.73;99245.47;5012786;27;102830;-77
2023/06/23 10:30:15;;;;;;;9.57;7.70;;;;;;;26.88;45.32;99244.44;5011043;27;103420;-78
2023/06/23 10:32:49;;;;;;;7.00;6.38;;;;;;;27.60;46.46;99239.25;5009535;27;103274;-77
2023/06/23 10:35:20;;;;;;;7.13;6.32;;;;;;;26.67;46.00;99249.91;5026160;27;102827;-77
2023/06/23 10:37:50;;;;;;;5.90;5.40;;;;;;;26.61;45.78;99252.63;5028585;27;102694;-78
2023/06/23 10:40:24;;;;;;;6.53;5.93;;;;;;;26.84;45.13;99254.00;5007431;27;104362;-78
2023/06/23 10:42:56;;;;;;;7.43;6.47;;;;;;;26.30;45.94;99256.56;5011210;27;103716;-78
2023/06/23 10:45:26;;;;;;;7.75;7.05;;;;;;;26.10;47.21;99262.84;5012735;27;102953;-79
2023/06/23 10:47:54;;;;;;;7.60;6.90;;;;;;;26.07;47.40;99253.25;5023616;27;103975;-79
2023/06/23 10:50:23;;;;;;;8.17;7.13;;;;;;;26.08;47.02;99251.41;5031032;27;103264;-78
2023/06/23 10:52:51;;;;;;;7.20;6.60;;;;;;;27.07;45.41;99253.69;5028531;27;103329;-78
2023/06/23 10:55:35;;;;;;;6.90;6.35;;;;;;;27.32;45.20;99251.25;5012684;27;103109;-78
2023/06/23 10:58:10;;;;;;;7.67;7.00;;;;;;;27.32;45.37;99265.66;5020572;27;103001;-79
2023/06/23 11:00:40;;;;;;;7.55;6.32;;;;;;;27.14;46.62;99253.72;5023573;27;104159;-79
2023/06/23 11:03:09;;;;;;;7.32;6.63;;;;;;;27.87;43.50;99244.72;5025653;27;103204;-78
2023/06/23 11:05:42;;;;;;;7.70;6.90;;;;;;;26.32;46.12;99242.84;5012285;27;102881;-79
2023/06/23 11:08:13;;;;;;;7.85;6.55;;;;;;;25.64;47.91;99249.75;5022413;27;102770;-78
2023/06/23 11:10:49;;;;;;;6.75;6.13;;;;;;;26.39;47.22;99259.97;5028770;27;103265;-77
2023/06/23 11:13:17;;;;;;;7.07;6.28;;;;;;;27.19;45.96;99259.38;5006291;27;103243;-72
2023/06/23 11:16:00;;;;;;;7.43;6.72;;;;;;;26.85;45.46;99255.69;5010130;27;103651;-71
2023/06/23 11:18:28;;;;;;;7.63;6.93;;;;;;;26.70;46.16;99257.66;5026920;27;103972;-71
2023/06/23 11:21:02;;;;;;;6.68;6.07;;;;;;;27.45;46.10;99256.78;5010896;27;104234;-70
2023/06/23 11:23:31;;;;;;;7.20;6.57;;;;;;;27.80;44.94;99255.56;4998527;27;103557;-73
2023/06/23 11:25:59;;;;;;;6.85;6.15;;;;;;;26.78;46.08;99248.53;5021965;27;102807;-71
2023/06/23 11:28:37;;;;;;;6.30;5.70;;;;;;;27.92;42.62;99253.06;5020853;27;104084;-72
2023/06/23 11:31:12;;;;;;;6.10;5.57;;;;;;;27.98;43.06;99247.66;5021778;27;103332;-71
2023/06/23 11:33:42;;;;;;;6.90;6.30;;;;;;;26.98;45.30;99261.16;5002277;27;103679;-73